createdAt,value
2018-02-14T00:00:13.322Z,71.70
2018-02-14T00:02:40.884Z,71.50
2018-02-14T00:05:08.404Z,71.40
2018-02-14T00:07:35.999Z,71.60
2018-02-14T00:10:03.511Z,71.50
2018-02-14T00:12:31.069Z,71.60
2018-02-14T00:14:58.580Z,71.70
2018-02-14T00:17:26.179Z,71.70
2018-02-14T00:19:53.793Z,71.90
2018-02-14T00:22:21.615Z,72.00
2018-02-14T00:24:49.126Z,71.90
2018-02-14T00:27:16.681Z,71.90
2018-02-14T00:29:44.212Z,71.70
2018-02-14T00:32:12.043Z,71.90
2018-02-14T00:34:39.574Z,72.00
2018-02-14T00:37:07.124Z,72.10
2018-02-14T00:39:34.641Z,72.90
2018-02-14T00:42:02.172Z,72.00
2018-02-14T00:44:29.691Z,71.80
2018-02-14T00:46:57.222Z,71.80
2018-02-14T00:49:24.770Z,71.90
2018-02-14T00:51:52.302Z,71.80
2018-02-14T00:54:20.571Z,71.90
2018-02-14T00:56:48.878Z,72.10
2018-02-14T00:59:16.418Z,72.00
2018-02-14T01:01:44.733Z,71.80
2018-02-14T01:04:12.242Z,71.80
2018-02-14T01:06:40.578Z,71.80
2018-02-14T01:09:08.084Z,71.80
2018-02-14T01:11:36.394Z,72.00
2018-02-14T01:14:03.938Z,72.00
2018-02-14T01:16:31.483Z,72.20
2018-02-14T01:19:14.646Z,72.00
2018-02-14T01:21:47.977Z,72.00
2018-02-14T01:24:15.580Z,71.90
2018-02-14T01:26:43.108Z,71.90
2018-02-14T01:29:11.437Z,72.10
2018-02-14T01:31:39.046Z,72.00
2018-02-14T01:34:06.556Z,72.20
2018-02-14T01:36:34.046Z,72.10
2018-02-14T01:39:01.582Z,72.20
2018-02-14T01:41:29.220Z,72.10
2018-02-14T01:43:56.763Z,72.50
2018-02-14T01:46:25.027Z,72.30
2018-02-14T01:48:53.343Z,72.60
2018-02-14T01:51:20.872Z,72.40
2018-02-14T01:53:48.426Z,72.70
2018-02-14T01:56:16.759Z,72.80
2018-02-14T01:58:44.293Z,72.60
2018-02-14T02:01:11.807Z,72.70
2018-02-14T02:03:39.520Z,73.00
2018-02-14T02:06:07.048Z,73.00
2018-02-14T02:08:35.362Z,72.90
2018-02-14T02:11:02.883Z,72.90
2018-02-14T02:13:30.419Z,73.00
2018-02-14T02:15:58.020Z,73.00
2018-02-14T02:18:25.558Z,73.00
2018-02-14T02:20:54.112Z,73.00
2018-02-14T02:23:21.640Z,72.90
2018-02-14T02:25:49.144Z,73.00
2018-02-14T02:28:17.448Z,73.30
2018-02-14T02:30:44.980Z,73.30
2018-02-14T02:33:12.522Z,73.60
2018-02-14T02:35:40.061Z,74.50
2018-02-14T02:38:07.680Z,73.90
2018-02-14T02:40:35.249Z,74.10
2018-02-14T02:43:02.795Z,74.10
2018-02-14T02:45:30.320Z,74.10
2018-02-14T02:47:57.874Z,74.50
2018-02-14T02:50:25.393Z,74.50
2018-02-14T02:52:52.916Z,74.50
2018-02-14T02:55:21.203Z,74.80
2018-02-14T02:57:49.527Z,74.90
2018-02-14T03:00:17.074Z,74.80
2018-02-14T03:02:44.625Z,75.10
2018-02-14T03:05:12.131Z,75.00
2018-02-14T03:07:39.666Z,75.20
2018-02-14T03:10:07.173Z,74.90
2018-02-14T03:12:35.482Z,75.10
2018-02-14T03:15:02.989Z,75.10
2018-02-14T03:17:30.583Z,75.00
2018-02-14T03:19:58.166Z,74.80
2018-02-14T03:22:25.725Z,75.20
2018-02-14T03:24:53.245Z,74.80
2018-02-14T03:27:21.596Z,74.60
2018-02-14T03:29:49.191Z,74.50
2018-02-14T03:32:16.769Z,74.50
2018-02-14T03:34:44.332Z,74.60
2018-02-14T03:37:11.971Z,74.80
2018-02-14T03:39:39.481Z,74.60
2018-02-14T03:42:07.049Z,74.70
2018-02-14T03:44:34.565Z,74.50
2018-02-14T03:47:02.215Z,74.40
2018-02-14T03:49:29.741Z,74.30
2018-02-14T03:51:57.330Z,74.40
2018-02-14T03:54:24.885Z,74.50
2018-02-14T03:56:53.187Z,74.50
2018-02-14T03:59:20.715Z,74.50
2018-02-14T04:01:49.019Z,74.20
2018-02-14T04:04:16.558Z,74.10
2018-02-14T04:06:44.854Z,74.00
2018-02-14T04:09:12.387Z,73.90
2018-02-14T04:11:40.721Z,74.60
2018-02-14T04:14:08.222Z,74.50
2018-02-14T04:16:36.543Z,74.80
2018-02-14T04:19:04.056Z,74.80
2018-02-14T04:21:32.368Z,74.80
2018-02-14T04:23:59.884Z,74.80
2018-02-14T04:26:28.183Z,75.00
2018-02-14T04:28:55.699Z,74.90
2018-02-14T04:31:23.242Z,75.80
2018-02-14T04:33:50.750Z,75.10
2018-02-14T04:36:18.302Z,75.10
2018-02-14T04:38:46.579Z,75.20
2018-02-14T04:41:14.163Z,75.10
2018-02-14T04:43:41.685Z,75.30
2018-02-14T04:46:09.188Z,75.60
2018-02-14T04:48:36.721Z,75.50
2018-02-14T04:51:04.244Z,75.40
2018-02-14T04:53:31.791Z,75.60
2018-02-14T04:55:59.406Z,75.40
2018-02-14T04:58:26.962Z,75.50
2018-02-14T05:00:54.499Z,75.80
2018-02-14T05:03:22.089Z,75.80
2018-02-14T05:05:49.697Z,75.70
2018-02-14T05:08:27.343Z,76.10
2018-02-14T05:10:54.952Z,76.20
2018-02-14T05:13:22.575Z,76.40
2018-02-14T05:15:50.109Z,76.40
2018-02-14T05:18:18.427Z,76.60
2018-02-14T05:20:46.015Z,76.60
2018-02-14T05:23:13.863Z,77.10
2018-02-14T05:25:41.519Z,77.40
2018-02-14T05:28:09.100Z,77.80
2018-02-14T05:30:36.627Z,78.20
2018-02-14T05:33:04.177Z,77.90
2018-02-14T05:35:31.716Z,77.50
2018-02-14T05:37:59.279Z,77.40
2018-02-14T05:40:26.951Z,77.40
2018-02-14T05:42:54.491Z,77.40
2018-02-14T05:45:23.008Z,77.30
2018-02-14T05:47:50.550Z,77.20
2018-02-14T05:50:18.121Z,77.20
2018-02-14T05:52:45.824Z,77.20
2018-02-14T05:55:13.443Z,77.30
2018-02-14T05:57:40.995Z,77.30
2018-02-14T06:00:08.558Z,77.20
2018-02-14T06:02:36.098Z,77.20
2018-02-14T06:05:03.664Z,77.00
2018-02-14T06:07:31.203Z,77.10
2018-02-14T06:09:59.509Z,77.00
2018-02-14T06:12:27.160Z,77.00
2018-02-14T06:14:56.593Z,77.10
2018-02-14T06:17:24.114Z,77.10
2018-02-14T06:19:51.642Z,77.00
2018-02-14T06:22:19.235Z,77.10
2018-02-14T06:24:46.811Z,77.40
2018-02-14T06:27:14.367Z,76.70
2018-02-14T06:29:41.878Z,77.60
2018-02-14T06:32:09.476Z,77.10
2018-02-14T06:34:37.151Z,77.10
2018-02-14T06:37:04.705Z,77.00
2018-02-14T06:39:32.325Z,77.00
2018-02-14T06:41:59.876Z,77.10
2018-02-14T06:44:27.408Z,76.90
2018-02-14T06:46:54.999Z,77.20
2018-02-14T06:49:22.511Z,77.00
2018-02-14T06:51:50.073Z,77.00
2018-02-14T06:54:17.652Z,77.80
2018-02-14T06:56:45.192Z,76.70
2018-02-14T06:59:12.741Z,76.50
2018-02-14T07:01:40.301Z,75.60
2018-02-14T07:04:07.912Z,74.20
2018-02-14T07:06:35.447Z,72.80
2018-02-14T07:09:03.014Z,71.50
2018-02-14T07:11:30.656Z,69.90
2018-02-14T07:13:58.179Z,69.20
2018-02-14T07:16:26.503Z,68.50
2018-02-14T07:18:54.037Z,68.50
2018-02-14T07:21:21.720Z,68.30
2018-02-14T07:23:49.221Z,68.30
2018-02-14T07:26:17.550Z,67.40
2018-02-14T07:28:45.087Z,67.40
2018-02-14T07:31:12.643Z,67.60
2018-02-14T07:33:40.172Z,66.80
2018-02-14T07:36:07.716Z,65.50
2018-02-14T07:38:35.333Z,64.70
2018-02-14T07:41:02.981Z,64.70
2018-02-14T07:43:30.523Z,63.30
2018-02-14T07:45:58.884Z,62.10
2018-02-14T07:48:26.388Z,62.00
2018-02-14T07:50:53.931Z,61.70
2018-02-14T07:53:22.208Z,59.60
2018-02-14T07:55:49.755Z,59.40
2018-02-14T07:58:18.178Z,58.50
2018-02-14T08:00:45.698Z,58.40
2018-02-14T08:03:13.536Z,58.40
2018-02-14T08:05:41.092Z,58.40
2018-02-14T08:08:08.649Z,58.20
2018-02-14T08:10:36.167Z,57.90
2018-02-14T08:13:03.731Z,58.20
2018-02-14T08:15:31.237Z,58.00
2018-02-14T08:17:59.560Z,56.70
2018-02-14T08:20:27.099Z,56.70
2018-02-14T08:22:54.719Z,56.70
2018-02-14T08:25:23.817Z,56.00
2018-02-14T08:27:51.362Z,55.90
2018-02-14T08:30:18.996Z,54.80
2018-02-14T08:32:46.531Z,53.90
2018-02-14T08:35:14.043Z,53.00
2018-02-14T08:37:42.539Z,53.50
2018-02-14T08:40:10.138Z,53.60
2018-02-14T08:42:37.690Z,52.40
2018-02-14T08:45:05.270Z,52.20
2018-02-14T08:47:32.917Z,52.20
2018-02-14T08:50:00.426Z,52.10
2018-02-14T08:52:27.989Z,51.60
2018-02-14T08:54:55.588Z,51.20
2018-02-14T08:57:23.134Z,51.30
2018-02-14T08:59:50.688Z,50.60
2018-02-14T09:02:19.271Z,48.60
2018-02-14T09:04:46.840Z,49.60
2018-02-14T09:07:14.400Z,49.90
2018-02-14T09:09:41.902Z,49.80
2018-02-14T09:12:09.459Z,49.30
2018-02-14T09:14:37.095Z,49.50
2018-02-14T09:17:04.670Z,49.20
2018-02-14T09:19:32.234Z,49.40
2018-02-14T09:21:59.780Z,49.50
2018-02-14T09:24:27.296Z,50.40
2018-02-14T09:26:55.603Z,48.30
2018-02-14T09:29:23.118Z,48.20
2018-02-14T09:31:51.431Z,47.80
2018-02-14T09:34:19.004Z,47.80
2018-02-14T09:36:46.563Z,46.50
2018-02-14T09:39:14.071Z,47.00
2018-02-14T09:41:42.385Z,46.60
2018-02-14T09:44:09.901Z,46.50
2018-02-14T09:46:38.230Z,48.10
2018-02-14T09:49:05.740Z,47.40
2018-02-14T09:51:34.086Z,46.70
2018-02-14T09:54:01.688Z,46.70
2018-02-14T09:56:29.239Z,47.00
2018-02-14T09:58:57.545Z,47.40
2018-02-14T10:01:25.161Z,47.40
2018-02-14T10:03:53.529Z,48.40
2018-02-14T10:06:21.481Z,48.30
2018-02-14T10:08:49.099Z,48.30
2018-02-14T10:11:16.670Z,47.80
2018-02-14T10:13:44.355Z,47.90
2018-02-14T10:16:12.032Z,47.50
2018-02-14T10:18:39.555Z,47.40
2018-02-14T10:21:07.124Z,47.40
2018-02-14T10:23:34.687Z,47.20
2018-02-14T10:26:02.256Z,48.00
2018-02-14T10:28:29.766Z,47.50
2018-02-14T10:30:57.326Z,47.30
2018-02-14T10:33:24.929Z,46.10
2018-02-14T10:35:52.459Z,47.40
2018-02-14T10:38:19.999Z,48.20
2018-02-14T10:40:47.592Z,47.60
2018-02-14T10:43:15.104Z,47.90
2018-02-14T10:45:43.456Z,47.90
2018-02-14T10:48:10.980Z,47.90
2018-02-14T10:50:38.652Z,47.10
2018-02-14T10:53:06.228Z,47.50
2018-02-14T10:55:33.744Z,47.60
2018-02-14T10:58:01.288Z,47.80
2018-02-14T11:00:35.426Z,47.10
2018-02-14T11:03:08.718Z,47.10
2018-02-14T11:05:36.287Z,47.00
2018-02-14T11:08:03.845Z,46.30
2018-02-14T11:10:31.479Z,45.70
2018-02-14T11:12:59.111Z,46.10
2018-02-14T11:15:26.644Z,45.60
2018-02-14T11:17:54.160Z,45.30
2018-02-14T11:20:21.764Z,46.30
2018-02-14T11:22:49.351Z,45.80
2018-02-14T11:25:17.659Z,47.10
2018-02-14T11:27:45.227Z,47.10
2018-02-14T11:30:12.876Z,46.80
2018-02-14T11:32:40.651Z,46.70
2018-02-14T11:35:08.189Z,46.20
2018-02-14T11:37:36.519Z,46.30
2018-02-14T11:40:04.035Z,46.20
2018-02-14T11:42:31.578Z,46.70
2018-02-14T11:44:59.854Z,46.20
2018-02-14T11:47:28.163Z,46.80
2018-02-14T11:49:55.675Z,46.70
2018-02-14T11:52:24.015Z,46.90
2018-02-14T11:54:52.327Z,46.90
2018-02-14T11:57:20.793Z,47.60
2018-02-14T11:59:48.296Z,46.80
2018-02-14T12:02:15.874Z,47.10
2018-02-14T12:04:43.479Z,47.90
2018-02-14T12:07:12.535Z,48.30
2018-02-14T12:09:40.113Z,48.30
2018-02-14T12:12:07.639Z,47.50
2018-02-14T12:14:35.138Z,47.90
2018-02-14T12:17:02.718Z,47.70
2018-02-14T12:19:31.744Z,48.70
2018-02-14T12:21:59.743Z,48.70
2018-02-14T12:24:27.490Z,49.20
2018-02-14T12:26:55.063Z,47.90
2018-02-14T12:29:22.570Z,48.40
2018-02-14T12:31:50.937Z,49.00
2018-02-14T12:34:18.543Z,49.00
2018-02-14T12:36:46.093Z,48.90
2018-02-14T12:39:13.617Z,49.10
2018-02-14T12:41:41.184Z,49.20
2018-02-14T12:44:08.694Z,49.30
2018-02-14T12:46:36.219Z,49.90
2018-02-14T12:49:04.515Z,49.30
2018-02-14T12:51:32.163Z,49.30
2018-02-14T12:53:59.674Z,49.50
2018-02-14T12:56:27.208Z,49.30
2018-02-14T12:58:54.702Z,49.30
2018-02-14T13:01:22.256Z,49.60
2018-02-14T13:03:49.759Z,50.00
2018-02-14T13:06:17.290Z,49.80
2018-02-14T13:08:44.802Z,49.10
2018-02-14T13:11:12.443Z,48.70
2018-02-14T13:13:39.984Z,49.20
2018-02-14T13:16:08.355Z,48.40
2018-02-14T13:18:46.626Z,48.60
2018-02-14T13:21:14.246Z,48.50
2018-02-14T13:23:41.891Z,48.60
2018-02-14T13:26:10.335Z,47.50
2018-02-14T13:28:37.873Z,47.50
2018-02-14T13:31:05.508Z,46.10
2018-02-14T13:33:33.018Z,47.20
2018-02-14T13:36:00.730Z,47.20
2018-02-14T13:38:28.246Z,47.50
2018-02-14T13:40:55.788Z,47.30
2018-02-14T13:43:23.295Z,45.80
2018-02-14T13:45:50.836Z,46.00
2018-02-14T13:48:19.139Z,45.50
2018-02-14T13:50:56.581Z,45.40
2018-02-14T13:53:24.106Z,46.00
2018-02-14T13:55:51.682Z,45.70
2018-02-14T13:58:19.222Z,45.60
2018-02-14T14:00:46.811Z,45.30
2018-02-14T14:03:14.337Z,44.80
2018-02-14T14:05:42.001Z,44.40
2018-02-14T14:08:09.590Z,44.00
2018-02-14T14:10:37.140Z,44.00
2018-02-14T14:13:04.737Z,44.70
2018-02-14T14:15:33.380Z,44.00
2018-02-14T14:18:00.907Z,45.40
2018-02-14T14:20:29.288Z,44.10
2018-02-14T14:22:56.860Z,44.00
2018-02-14T14:25:24.474Z,44.50
2018-02-14T14:27:52.839Z,43.40
2018-02-14T14:30:20.499Z,42.80
2018-02-14T14:32:48.017Z,42.80
2018-02-14T14:35:15.574Z,43.10
2018-02-14T14:37:43.138Z,42.90
2018-02-14T14:40:10.800Z,42.60
2018-02-14T14:42:38.376Z,43.40
2018-02-14T14:45:05.951Z,43.00
2018-02-14T14:47:33.582Z,42.70
2018-02-14T14:50:01.108Z,41.30
2018-02-14T14:52:29.472Z,41.80
2018-02-14T14:54:57.187Z,41.70
2018-02-14T14:57:24.695Z,40.90
2018-02-14T14:59:52.360Z,40.20
2018-02-14T15:02:19.846Z,40.50
2018-02-14T15:04:47.441Z,41.20
2018-02-14T15:07:14.966Z,41.40
2018-02-14T15:09:43.287Z,40.70
2018-02-14T15:12:10.913Z,40.70
2018-02-14T15:14:38.490Z,40.60
2018-02-14T15:17:07.116Z,40.90
2018-02-14T15:19:34.632Z,40.00
2018-02-14T15:22:02.212Z,41.50
2018-02-14T15:24:29.763Z,40.30
2018-02-14T15:26:57.281Z,41.40
2018-02-14T15:29:24.818Z,41.90
2018-02-14T15:31:53.160Z,40.00
2018-02-14T15:34:20.701Z,39.40
2018-02-14T15:36:48.233Z,40.30
2018-02-14T15:39:16.536Z,40.80
2018-02-14T15:41:44.954Z,40.80
2018-02-14T15:44:12.548Z,41.00
2018-02-14T15:46:40.882Z,42.20
2018-02-14T15:49:08.484Z,42.20
2018-02-14T15:51:36.799Z,43.10
2018-02-14T15:54:04.471Z,43.10
2018-02-14T15:56:32.187Z,43.90
2018-02-14T15:59:00.502Z,44.50
2018-02-14T16:01:28.056Z,44.50
2018-02-14T16:03:55.740Z,43.80
2018-02-14T16:06:23.375Z,44.60
2018-02-14T16:08:50.954Z,45.40
2018-02-14T16:11:18.472Z,45.20
2018-02-14T16:13:45.982Z,44.50
2018-02-14T16:16:13.586Z,44.90
2018-02-14T16:18:41.883Z,45.60
2018-02-14T16:21:09.571Z,45.50
2018-02-14T16:23:37.188Z,46.10
2018-02-14T16:26:05.507Z,46.10
2018-02-14T16:28:33.046Z,46.00
2018-02-14T16:31:00.692Z,46.00
2018-02-14T16:33:28.254Z,46.50
2018-02-14T16:35:55.868Z,46.70
2018-02-14T16:38:23.453Z,47.10
2018-02-14T16:40:51.820Z,47.80
2018-02-14T16:43:19.444Z,47.70
2018-02-14T16:45:47.439Z,47.90
2018-02-14T16:48:14.959Z,48.10
2018-02-14T16:50:43.041Z,48.30
2018-02-14T16:53:10.588Z,48.80
2018-02-14T16:55:38.162Z,48.90
2018-02-14T16:58:05.710Z,49.00
2018-02-14T17:00:33.271Z,49.00
2018-02-14T17:03:00.781Z,49.00
2018-02-14T17:05:28.390Z,49.50
2018-02-14T17:07:56.012Z,49.60
2018-02-14T17:10:24.531Z,49.60
2018-02-14T17:12:52.046Z,49.60
2018-02-14T17:15:20.429Z,49.90
2018-02-14T17:17:48.739Z,50.50
2018-02-14T17:20:16.289Z,50.40
2018-02-14T17:22:43.808Z,50.20
2018-02-14T17:25:11.332Z,50.10
2018-02-14T17:27:39.117Z,50.70
2018-02-14T17:30:06.844Z,50.70
2018-02-14T17:32:36.333Z,50.60
2018-02-14T17:35:03.896Z,51.10
2018-02-14T17:37:32.992Z,51.30
2018-02-14T17:40:00.552Z,51.40
2018-02-14T17:42:28.123Z,51.70
2018-02-14T17:44:55.648Z,51.90
2018-02-14T17:47:24.748Z,52.50
2018-02-14T17:49:53.051Z,52.70
2018-02-14T17:52:20.556Z,52.70
2018-02-14T17:54:48.974Z,53.20
2018-02-14T17:57:17.259Z,54.40
2018-02-14T17:59:44.831Z,54.30
2018-02-14T18:02:12.348Z,54.60
2018-02-14T18:04:40.736Z,55.10
2018-02-14T18:07:09.104Z,55.20
2018-02-14T18:09:37.444Z,55.60
2018-02-14T18:12:05.063Z,55.60
2018-02-14T18:14:32.627Z,55.60
2018-02-14T18:17:01.125Z,55.70
2018-02-14T18:19:28.637Z,55.90
2018-02-14T18:21:56.254Z,56.10
2018-02-14T18:24:23.784Z,56.30
2018-02-14T18:26:51.336Z,56.30
2018-02-14T18:29:18.931Z,56.60
2018-02-14T18:31:46.590Z,56.90
2018-02-14T18:34:14.146Z,56.70
2018-02-14T18:36:41.852Z,56.90
2018-02-14T18:39:09.416Z,57.00
2018-02-14T18:41:37.763Z,57.30
2018-02-14T18:44:07.596Z,57.30
2018-02-14T18:46:35.827Z,57.40
2018-02-14T18:49:03.348Z,57.50
2018-02-14T18:51:31.698Z,57.60
2018-02-14T18:53:59.296Z,57.50
2018-02-14T18:56:27.621Z,57.50
2018-02-14T18:58:55.208Z,57.50
2018-02-14T19:01:22.772Z,57.50
2018-02-14T19:03:50.344Z,57.30
2018-02-14T19:06:18.683Z,58.10
2018-02-14T19:08:46.206Z,57.60
2018-02-14T19:11:13.751Z,57.80
2018-02-14T19:13:42.253Z,57.50
2018-02-14T19:16:09.993Z,57.40
2018-02-14T19:18:38.400Z,57.60
2018-02-14T19:21:06.028Z,57.50
2018-02-14T19:23:33.591Z,57.50
2018-02-14T19:26:01.983Z,57.70
2018-02-14T19:28:36.792Z,57.90
2018-02-14T19:31:25.073Z,58.10
2018-02-14T19:33:53.610Z,58.40
2018-02-14T19:36:21.118Z,58.40
2018-02-14T19:38:48.763Z,59.50
2018-02-14T19:41:16.287Z,58.90
2018-02-14T19:43:43.996Z,59.30
2018-02-14T19:46:11.514Z,59.30
2018-02-14T19:48:39.062Z,59.70
2018-02-14T19:51:06.667Z,60.50
2018-02-14T19:53:34.189Z,59.80
2018-02-14T19:56:01.719Z,60.00
2018-02-14T19:58:29.235Z,60.10
2018-02-14T20:00:56.816Z,60.20
2018-02-14T20:03:24.329Z,60.60
2018-02-14T20:05:51.875Z,60.90
2018-02-14T20:08:19.408Z,61.40
2018-02-14T20:10:46.944Z,61.30
2018-02-14T20:13:14.458Z,61.30
2018-02-14T20:15:43.766Z,61.70
2018-02-14T20:18:12.092Z,62.70
2018-02-14T20:20:39.807Z,62.20
2018-02-14T20:23:08.107Z,62.00
2018-02-14T20:25:36.339Z,62.00
2018-02-14T20:28:03.954Z,62.10
2018-02-14T20:30:32.262Z,62.00
2018-02-14T20:33:00.587Z,62.20
2018-02-14T20:35:28.197Z,62.10
2018-02-14T20:37:55.841Z,62.10
2018-02-14T20:40:23.471Z,62.20
2018-02-14T20:42:52.797Z,62.30
2018-02-14T20:45:20.611Z,62.30
2018-02-14T20:47:48.238Z,62.00
2018-02-14T20:50:15.895Z,61.70
2018-02-14T20:52:43.449Z,61.70
2018-02-14T20:55:12.894Z,61.70
2018-02-14T20:57:40.563Z,61.70
2018-02-14T21:00:08.188Z,61.40
2018-02-14T21:02:36.973Z,61.80
2018-02-14T21:05:04.627Z,61.80
2018-02-14T21:07:32.251Z,61.80
2018-02-14T21:10:00.727Z,62.10
2018-02-14T21:12:29.041Z,62.90
2018-02-14T21:14:56.622Z,62.10
2018-02-14T21:17:24.143Z,62.00
2018-02-14T21:19:51.721Z,62.40
2018-02-14T21:22:29.142Z,62.40
2018-02-14T21:24:56.654Z,62.90
2018-02-14T21:27:24.142Z,62.30
2018-02-14T21:29:51.723Z,62.20
2018-02-14T21:32:19.244Z,62.30
2018-02-14T21:34:46.804Z,62.60
2018-02-14T21:37:14.328Z,62.50
2018-02-14T21:39:42.641Z,63.60
2018-02-14T21:42:10.228Z,63.00
2018-02-14T21:44:37.793Z,62.60
2018-02-14T21:47:05.355Z,62.50
2018-02-14T21:49:32.986Z,62.50
2018-02-14T21:52:00.516Z,62.60
2018-02-14T21:54:28.183Z,63.00
2018-02-14T21:56:55.971Z,62.90
2018-02-14T21:59:23.507Z,62.90
2018-02-14T22:01:51.798Z,63.30
2018-02-14T22:04:19.408Z,63.20
2018-02-14T22:06:46.957Z,63.30
2018-02-14T22:09:14.546Z,63.30
2018-02-14T22:11:42.824Z,63.60
2018-02-14T22:14:11.232Z,63.80
2018-02-14T22:16:38.818Z,63.70
2018-02-14T22:19:06.367Z,63.90
2018-02-14T22:21:33.913Z,63.90
2018-02-14T22:24:01.491Z,64.20
2018-02-14T22:26:29.006Z,63.90
2018-02-14T22:28:57.295Z,64.40
2018-02-14T22:31:25.790Z,64.40
2018-02-14T22:33:53.346Z,64.40
2018-02-14T22:36:21.763Z,64.30
2018-02-14T22:38:49.310Z,64.60
2018-02-14T22:41:16.821Z,65.00
2018-02-14T22:43:45.122Z,65.40
2018-02-14T22:46:12.682Z,65.40
2018-02-14T22:48:40.249Z,65.10
2018-02-14T22:51:07.815Z,65.00
2018-02-14T22:53:35.343Z,65.50
2018-02-14T22:56:02.856Z,65.80
2018-02-14T22:58:30.470Z,65.60
2018-02-14T23:00:58.008Z,65.40
2018-02-14T23:03:26.375Z,65.30
2018-02-14T23:05:53.867Z,65.30
2018-02-14T23:08:21.414Z,65.40
2018-02-14T23:10:49.710Z,65.40
2018-02-14T23:13:17.256Z,65.40
2018-02-14T23:15:44.791Z,65.20
2018-02-14T23:18:13.067Z,65.50
2018-02-14T23:20:41.377Z,65.60
2018-02-14T23:23:08.936Z,65.50
2018-02-14T23:25:36.504Z,65.20
2018-02-14T23:28:04.050Z,65.20
2018-02-14T23:30:31.581Z,65.30
2018-02-14T23:32:59.911Z,65.60
2018-02-14T23:35:27.448Z,65.30
2018-02-14T23:37:55.024Z,65.30
2018-02-14T23:40:22.597Z,65.30
2018-02-14T23:42:50.107Z,65.20
2018-02-14T23:45:18.451Z,64.70
2018-02-14T23:47:46.060Z,64.70
2018-02-14T23:50:13.597Z,64.80
2018-02-14T23:52:41.900Z,65.10
2018-02-14T23:55:09.432Z,65.10
2018-02-14T23:57:37.745Z,64.90
